Time;durP1;ratioP1;P1;durP2;ratioP2;P2;SDS_P1;SDS_P2;PMS_P1;PMS_P2;Temp;Humidity;BMP_temperature;BMP_pressure;BME280_temperature;BME280_humidity;BME280_pressure;Samples;Min_cycle;Max_cycle;Signal;HPM_P1;HPM_P2
2023/03/05 00:03:23;;;;;;;9.63;2.20;;;2.30;99.90;;;;;;7832509;28;20208;-86
2023/03/05 00:07:11;;;;;;;9.20;2.23;;;2.30;99.90;;;;;;7829217;28;20731;-86
2023/03/05 00:10:57;;;;;;;16.80;3.03;;;2.20;99.90;;;;;;7834614;28;20636;-86
2023/03/05 00:14:43;;;;;;;17.10;2.27;;;2.20;99.90;;;;;;7858757;28;20205;-85
2023/03/05 00:18:29;;;;;;;16.50;2.77;;;2.20;99.90;;;;;;7847569;28;20205;-86
2023/03/05 00:22:14;;;;;;;16.20;2.50;;;2.20;99.90;;;;;;7840445;28;20202;-85
2023/03/05 00:26:02;;;;;;;15.57;2.93;;;2.20;99.90;;;;;;7835414;28;20194;-85
2023/03/05 00:29:48;;;;;;;13.77;3.37;;;2.10;99.90;;;;;;7811069;28;20198;-86
2023/03/05 00:33:33;;;;;;;17.00;3.27;;;2.20;99.90;;;;;;7840145;28;20229;-85
2023/03/05 00:37:19;;;;;;;18.73;3.57;;;2.20;99.90;;;;;;7845257;28;20181;-86
2023/03/05 00:41:04;;;;;;;11.63;2.47;;;2.10;99.90;;;;;;7837148;28;20248;-86
2023/03/05 00:44:50;;;;;;;13.77;2.73;;;2.10;99.90;;;;;;7821027;28;20237;-85
2023/03/05 00:48:36;;;;;;;11.70;2.40;;;2.00;99.90;;;;;;7808204;28;20207;-86
2023/03/05 00:52:21;;;;;;;11.30;2.37;;;2.10;99.90;;;;;;7808188;28;20208;-86
2023/03/05 00:56:07;;;;;;;4.37;1.80;;;2.10;99.90;;;;;;7808582;28;20698;-86
2023/03/05 00:59:52;;;;;;;11.90;2.57;;;2.10;99.90;;;;;;7826182;28;20196;-86
2023/03/05 01:03:38;;;;;;;11.17;2.07;;;2.20;99.90;;;;;;7830534;28;20208;-86
2023/03/05 01:07:24;;;;;;;9.33;2.50;;;2.10;99.90;;;;;;7837220;28;20206;-86
2023/03/05 01:11:10;;;;;;;13.50;2.90;;;2.00;99.90;;;;;;7825907;28;20197;-86
2023/03/05 01:14:56;;;;;;;9.53;2.20;;;2.10;99.90;;;;;;7838822;28;20206;-86
2023/03/05 01:18:41;;;;;;;13.47;2.57;;;2.00;99.90;;;;;;7839992;28;20185;-86
2023/03/05 01:22:27;;;;;;;9.00;2.10;;;2.10;99.90;;;;;;7821111;28;20356;-85
2023/03/05 01:26:13;;;;;;;10.90;2.13;;;2.00;99.90;;;;;;7831709;28;20217;-86
2023/03/05 01:29:59;;;;;;;9.60;2.13;;;1.90;99.90;;;;;;7818111;28;20186;-85
2023/03/05 01:33:45;;;;;;;12.93;1.87;;;1.90;99.90;;;;;;7827817;28;20245;-86
2023/03/05 01:37:31;;;;;;;10.47;2.70;;;1.90;99.90;;;;;;7815944;28;20185;-86
2023/03/05 01:41:18;;;;;;;8.10;1.73;;;1.90;99.90;;;;;;7819592;28;20191;-86
2023/03/05 01:45:10;;;;;;;8.80;2.07;;;1.90;99.90;;;;;;7825036;28;20206;-85
2023/03/05 01:49:05;;;;;;;12.10;1.97;;;2.00;99.90;;;;;;7818176;28;20710;-86
2023/03/05 01:53:02;;;;;;;12.60;2.40;;;1.90;99.90;;;;;;7819214;28;20233;-86
2023/03/05 01:56:50;;;;;;;12.27;1.80;;;1.90;99.90;;;;;;7836680;28;20188;-86
2023/03/05 02:00:44;;;;;;;10.77;2.03;;;1.80;99.90;;;;;;7826872;28;20221;-86
2023/03/05 02:04:36;;;;;;;7.90;2.20;;;1.80;99.90;;;;;;7829066;28;20210;-86
2023/03/05 02:08:22;;;;;;;8.73;1.87;;;1.80;99.90;;;;;;7837446;28;20217;-86
2023/03/05 02:12:09;;;;;;;10.67;2.00;;;1.80;99.90;;;;;;7866483;28;20228;-86
2023/03/05 02:15:58;;;;;;;19.10;1.97;;;1.70;99.90;;;;;;7843492;28;20659;-86
2023/03/05 02:19:55;;;;;;;10.23;1.57;;;1.70;99.90;;;;;;7828575;28;20327;-86
2023/03/05 02:23:41;;;;;;;10.03;2.17;;;1.70;99.90;;;;;;7828457;28;20224;-85
2023/03/05 02:27:33;;;;;;;6.83;1.50;;;1.60;99.90;;;;;;7828773;28;20206;-87
2023/03/05 02:31:22;;;;;;;10.60;1.77;;;1.50;99.90;;;;;;7806151;28;20193;-87
2023/03/05 02:35:08;;;;;;;8.43;2.23;;;1.60;99.90;;;;;;7812858;28;20213;-86
2023/03/05 02:38:55;;;;;;;12.43;2.30;;;1.50;99.90;;;;;;7836549;28;20236;-86
2023/03/05 02:42:42;;;;;;;9.60;1.67;;;1.50;99.90;;;;;;7835977;28;20202;-87
2023/03/05 02:46:27;;;;;;;8.43;1.30;;;1.50;99.90;;;;;;7829336;28;20206;-87
2023/03/05 02:50:13;;;;;;;6.67;1.57;;;1.50;99.90;;;;;;7836030;28;20178;-85
2023/03/05 02:53:59;;;;;;;8.70;2.03;;;1.50;99.90;;;;;;7809700;28;20253;-86
2023/03/05 02:57:44;;;;;;;12.37;1.93;;;1.50;99.90;;;;;;7822023;28;20173;-86
2023/03/05 03:01:30;;;;;;;12.53;1.67;;;1.60;99.90;;;;;;7818177;28;20183;-87
2023/03/05 03:05:16;;;;;;;10.30;1.60;;;1.60;99.90;;;;;;7804531;28;20206;-87
2023/03/05 03:09:02;;;;;;;6.27;1.20;;;1.50;99.90;;;;;;7824433;28;20808;-86
2023/03/05 03:12:47;;;;;;;3.37;1.20;;;1.50;99.90;;;;;;7835725;28;20256;-86
2023/03/05 03:16:33;;;;;;;7.73;1.87;;;1.50;99.90;;;;;;7835104;28;20182;-87
2023/03/05 03:20:19;;;;;;;9.73;1.43;;;1.50;99.90;;;;;;7819330;28;20190;-86
2023/03/05 03:24:05;;;;;;;10.93;1.53;;;1.40;99.90;;;;;;7806001;28;20221;-86
2023/03/05 03:27:51;;;;;;;4.90;1.50;;;1.40;99.90;;;;;;7831413;28;20201;-86
2023/03/05 03:31:38;;;;;;;6.80;1.57;;;1.30;99.90;;;;;;7835238;28;20201;-86
2023/03/05 03:35:24;;;;;;;5.77;1.53;;;1.40;99.90;;;;;;7835389;28;20289;-87
2023/03/05 03:39:10;;;;;;;9.63;1.23;;;1.30;99.90;;;;;;7824261;28;20240;-87
2023/03/05 03:42:56;;;;;;;5.87;1.90;;;1.30;99.90;;;;;;7836953;28;20206;-86
2023/03/05 03:46:43;;;;;;;3.63;1.47;;;1.20;99.90;;;;;;7814509;28;20202;-85
2023/03/05 03:50:29;;;;;;;6.33;1.37;;;1.30;99.90;;;;;;7828854;28;20181;-87
2023/03/05 03:54:15;;;;;;;8.10;1.60;;;1.20;99.90;;;;;;7840308;28;20221;-86
2023/03/05 03:58:02;;;;;;;4.27;1.30;;;1.20;99.90;;;;;;7841293;28;20178;-86
2023/03/05 04:01:47;;;;;;;3.83;1.47;;;1.30;99.90;;;;;;7831645;28;20213;-86
2023/03/05 04:05:33;;;;;;;4.20;0.80;;;1.30;99.90;;;;;;7836805;28;20189;-85
2023/03/05 04:09:19;;;;;;;3.60;1.23;;;1.20;99.90;;;;;;7852408;28;20210;-87
2023/03/05 04:13:05;;;;;;;8.43;1.40;;;1.20;99.90;;;;;;7832889;28;20721;-86
2023/03/05 04:16:50;;;;;;;3.30;1.03;;;1.20;99.90;;;;;;7821311;28;20209;-86
2023/03/05 04:20:36;;;;;;;4.57;1.17;;;1.20;99.90;;;;;;7818022;28;20173;-86
2023/03/05 04:24:22;;;;;;;3.87;0.90;;;1.20;99.90;;;;;;7840897;28;20209;-86
2023/03/05 04:28:07;;;;;;;5.83;1.40;;;1.30;99.90;;;;;;7838100;28;20248;-87
2023/03/05 04:31:53;;;;;;;3.93;1.10;;;1.30;99.90;;;;;;7824305;28;20190;-86
2023/03/05 04:35:39;;;;;;;2.80;1.30;;;1.20;99.90;;;;;;7839343;28;20200;-86
2023/03/05 04:39:24;;;;;;;8.13;1.50;;;1.20;99.90;;;;;;7833061;28;20209;-85
2023/03/05 04:43:10;;;;;;;4.87;1.07;;;1.20;99.90;;;;;;7838235;28;20213;-86
2023/03/05 04:46:55;;;;;;;5.80;1.00;;;1.20;99.90;;;;;;7833767;28;20633;-85
2023/03/05 04:50:41;;;;;;;13.40;1.30;;;1.20;99.90;;;;;;7840945;28;20663;-85
2023/03/05 04:54:27;;;;;;;3.83;1.00;;;1.10;99.90;;;;;;7838472;28;20623;-85
2023/03/05 04:58:12;;;;;;;6.93;1.43;;;1.10;99.90;;;;;;7838518;28;20190;-86
2023/03/05 05:01:58;;;;;;;4.27;0.80;;;1.20;99.90;;;;;;7829634;28;20194;-86
2023/03/05 05:05:44;;;;;;;2.90;1.00;;;1.20;99.90;;;;;;7832742;28;20813;-86
2023/03/05 05:09:29;;;;;;;3.10;1.10;;;1.20;99.90;;;;;;7838270;28;20213;-86
2023/03/05 05:13:15;;;;;;;6.83;1.00;;;1.20;99.90;;;;;;7831600;28;20194;-86
2023/03/05 05:17:03;;;;;;;4.27;1.10;;;1.20;99.90;;;;;;7824963;28;20190;-86
2023/03/05 05:20:49;;;;;;;5.23;1.40;;;1.10;99.90;;;;;;7837900;28;20200;-85
2023/03/05 05:24:35;;;;;;;5.10;1.90;;;1.10;99.90;;;;;;7832430;28;20245;-84
2023/03/05 05:28:21;;;;;;;5.00;1.50;;;1.10;99.90;;;;;;7832611;28;20194;-86
2023/03/05 05:32:06;;;;;;;3.57;1.80;;;1.10;99.90;;;;;;7845783;28;20213;-86
2023/03/05 05:35:52;;;;;;;5.33;1.63;;;1.10;99.90;;;;;;7836825;28;20648;-86
2023/03/05 05:39:38;;;;;;;7.70;2.20;;;1.00;99.90;;;;;;7837361;28;20190;-86
2023/03/05 05:43:23;;;;;;;5.10;2.00;;;1.20;99.90;;;;;;7831998;28;20264;-85
2023/03/05 05:47:09;;;;;;;6.97;2.60;;;1.10;99.90;;;;;;7836004;28;20233;-83
2023/03/05 05:50:55;;;;;;;7.90;2.33;;;1.00;99.90;;;;;;7841812;28;20181;-82
2023/03/05 05:54:41;;;;;;;8.20;2.07;;;0.90;99.90;;;;;;7839437;28;20190;-84
2023/03/05 05:58:26;;;;;;;5.77;2.07;;;0.90;99.90;;;;;;7829772;28;20247;-84
2023/03/05 06:02:12;;;;;;;7.53;1.97;;;0.90;99.90;;;;;;7838604;28;20222;-85
2023/03/05 06:05:57;;;;;;;3.83;2.07;;;0.80;99.90;;;;;;7858016;28;20197;-85
2023/03/05 06:09:43;;;;;;;4.17;2.10;;;0.90;99.90;;;;;;7838702;28;20785;-84
2023/03/05 06:13:29;;;;;;;4.17;1.67;;;0.90;99.90;;;;;;7820900;28;20206;-84
2023/03/05 06:17:14;;;;;;;3.47;1.90;;;0.90;99.90;;;;;;7819352;28;20273;-84
2023/03/05 06:21:11;;;;;;;5.87;1.80;;;1.00;99.90;;;;;;7818026;28;20178;-85
2023/03/05 06:24:57;;;;;;;3.13;1.87;;;1.00;99.90;;;;;;7836882;28;20251;-87
2023/03/05 06:28:43;;;;;;;4.20;2.07;;;1.10;99.90;;;;;;7835499;28;20237;-87
2023/03/05 06:32:28;;;;;;;4.30;1.93;;;1.00;99.90;;;;;;7825990;28;20631;-86
2023/03/05 06:36:17;;;;;;;4.80;1.67;;;1.00;99.90;;;;;;7836154;28;20190;-86
2023/03/05 06:40:04;;;;;;;6.27;1.80;;;1.10;99.90;;;;;;7823495;28;20179;-86
2023/03/05 06:43:49;;;;;;;2.30;1.60;;;1.10;99.90;;;;;;7815333;28;20201;-86
2023/03/05 06:47:35;;;;;;;6.40;2.00;;;1.00;99.90;;;;;;7835434;28;20205;-86
2023/03/05 06:51:30;;;;;;;3.23;1.67;;;1.20;99.90;;;;;;7835537;28;20178;-87
2023/03/05 06:55:17;;;;;;;4.83;1.30;;;1.20;99.90;;;;;;7830801;28;20280;-87
2023/03/05 06:59:03;;;;;;;4.83;1.27;;;1.20;99.90;;;;;;7829828;28;20196;-86
2023/03/05 07:02:49;;;;;;;5.00;1.40;;;1.20;99.90;;;;;;7832917;28;20619;-86
2023/03/05 07:06:37;;;;;;;3.70;1.20;;;1.10;99.90;;;;;;7833254;28;20213;-88
2023/03/05 07:10:23;;;;;;;4.63;1.33;;;1.10;99.90;;;;;;7835718;28;20192;-88
2023/03/05 07:14:08;;;;;;;3.97;2.03;;;1.10;99.90;;;;;;7829960;28;20296;-88
2023/03/05 07:17:55;;;;;;;2.50;1.13;;;1.10;99.90;;;;;;7819005;28;20190;-88
2023/03/05 07:21:41;;;;;;;5.13;1.43;;;1.10;99.90;;;;;;7828638;28;20218;-88
2023/03/05 07:25:26;;;;;;;3.73;1.17;;;1.00;99.90;;;;;;7825467;28;20217;-88
2023/03/05 07:29:12;;;;;;;4.33;1.60;;;1.00;99.90;;;;;;7834000;28;20212;-88
2023/03/05 07:32:58;;;;;;;3.97;1.40;;;1.00;99.90;;;;;;7838441;28;20628;-88
2023/03/05 07:36:44;;;;;;;6.53;1.63;;;1.00;99.90;;;;;;7835222;28;20190;-88
2023/03/05 07:40:29;;;;;;;1.83;1.10;;;1.10;99.90;;;;;;7841823;28;20180;-89
2023/03/05 07:44:17;;;;;;;2.47;1.20;;;1.00;99.90;;;;;;7836896;28;20653;-88
2023/03/05 07:48:03;;;;;;;1.57;1.10;;;1.00;99.90;;;;;;7843596;28;20259;-83
2023/03/05 07:51:48;;;;;;;3.30;1.17;;;1.00;99.90;;;;;;7838784;28;20189;-85
2023/03/05 07:55:34;;;;;;;3.43;1.30;;;1.10;99.90;;;;;;7840947;28;20185;-85
2023/03/05 07:59:20;;;;;;;2.30;1.33;;;1.00;99.90;;;;;;7823717;28;20184;-85
2023/03/05 08:03:05;;;;;;;5.07;1.27;;;1.10;99.90;;;;;;7836699;28;20191;-85
2023/03/05 08:06:51;;;;;;;3.03;1.50;;;1.10;99.90;;;;;;7829774;28;20221;-85
2023/03/05 08:10:37;;;;;;;3.10;1.40;;;1.00;99.90;;;;;;7842019;28;20231;-85
2023/03/05 08:14:23;;;;;;;2.53;1.50;;;1.10;99.90;;;;;;7819492;28;20218;-87
2023/03/05 08:18:08;;;;;;;4.10;1.50;;;1.10;99.90;;;;;;7835647;28;20191;-85
2023/03/05 08:21:54;;;;;;;3.10;1.53;;;1.10;99.90;;;;;;7821820;28;20674;-86
2023/03/05 08:25:40;;;;;;;6.17;1.60;;;1.20;99.90;;;;;;7828107;28;20197;-85
2023/03/05 08:29:25;;;;;;;4.83;2.00;;;1.20;99.90;;;;;;7817388;28;20484;-86
2023/03/05 08:33:12;;;;;;;5.60;2.20;;;1.20;99.90;;;;;;7837493;28;20206;-86
2023/03/05 08:36:57;;;;;;;4.90;2.47;;;1.10;99.90;;;;;;7831435;28;20190;-85
2023/03/05 08:40:43;;;;;;;5.90;3.13;;;1.10;99.90;;;;;;7833708;28;20286;-85
2023/03/05 08:44:30;;;;;;;7.13;2.50;;;1.10;99.90;;;;;;7816648;28;20233;-86
2023/03/05 08:48:16;;;;;;;4.37;2.03;;;1.20;99.90;;;;;;7834783;28;20236;-86
2023/03/05 08:52:01;;;;;;;3.00;1.97;;;1.20;99.90;;;;;;7825868;28;20182;-85
2023/03/05 08:55:57;;;;;;;3.63;2.30;;;1.30;99.90;;;;;;7825564;28;20277;-85
2023/03/05 08:59:43;;;;;;;4.47;2.50;;;1.30;99.90;;;;;;7827202;28;20213;-85
2023/03/05 09:03:29;;;;;;;3.50;2.43;;;1.40;99.90;;;;;;7822322;28;20581;-85
2023/03/05 09:07:15;;;;;;;6.00;2.40;;;1.50;99.90;;;;;;7820193;28;20210;-85
2023/03/05 09:11:03;;;;;;;6.83;3.17;;;1.40;99.90;;;;;;7838708;28;20666;-85
2023/03/05 09:14:49;;;;;;;6.80;3.27;;;1.50;99.90;;;;;;7818510;28;20202;-85
2023/03/05 09:18:35;;;;;;;6.90;3.40;;;1.50;99.90;;;;;;7823327;28;20278;-85
2023/03/05 09:22:21;;;;;;;7.47;3.30;;;1.50;99.90;;;;;;7839416;28;20207;-85
2023/03/05 09:26:08;;;;;;;7.13;3.97;;;1.50;99.90;;;;;;7825962;28;20667;-85
2023/03/05 09:29:54;;;;;;;5.43;3.63;;;1.40;99.90;;;;;;7836747;28;20217;-85
2023/03/05 09:33:40;;;;;;;8.53;3.57;;;1.40;99.90;;;;;;7818830;28;20210;-86
2023/03/05 09:37:28;;;;;;;21.23;7.37;;;1.40;99.90;;;;;;7824918;28;20192;-85
2023/03/05 09:41:20;;;;;;;6.73;3.77;;;1.40;99.90;;;;;;7830889;28;20186;-85
2023/03/05 09:45:25;;;;;;;10.60;3.17;;;1.30;99.90;;;;;;7838545;28;20260;-86
2023/03/05 09:49:16;;;;;;;6.70;3.20;;;1.30;99.90;;;;;;7828026;28;20263;-85
2023/03/05 09:53:25;;;;;;;5.07;3.07;;;1.40;99.90;;;;;;7828921;28;20683;-84
2023/03/05 09:57:21;;;;;;;10.20;4.47;;;1.30;99.90;;;;;;7823158;28;20183;-86
2023/03/05 10:01:37;;;;;;;7.47;4.23;;;1.30;99.90;;;;;;7855004;28;20185;-85
2023/03/05 10:05:45;;;;;;;10.27;4.90;;;1.40;99.90;;;;;;7825116;28;20394;-85
2023/03/05 10:09:57;;;;;;;7.63;4.13;;;1.40;99.90;;;;;;7823228;28;20202;-85
2023/03/05 10:13:45;;;;;;;8.63;4.23;;;1.50;99.90;;;;;;7827998;28;20222;-86
2023/03/05 10:18:01;;;;;;;11.70;6.17;;;1.50;99.90;;;;;;7828814;28;20188;-85
2023/03/05 10:22:08;;;;;;;14.40;6.50;;;1.60;99.90;;;;;;7836781;28;20189;-85
2023/03/05 10:26:20;;;;;;;7.87;3.93;;;1.70;99.90;;;;;;7829621;28;20187;-86
2023/03/05 10:30:12;;;;;;;8.70;4.40;;;1.80;99.90;;;;;;7837769;28;20177;-85
2023/03/05 10:34:49;;;;;;;7.40;3.97;;;1.80;99.90;;;;;;7826156;28;20264;-86
2023/03/05 10:38:55;;;;;;;4.63;2.70;;;1.90;99.90;;;;;;7828780;28;20194;-85
2023/03/05 10:42:53;;;;;;;8.10;4.47;;;1.90;99.90;;;;;;7809950;28;20234;-85
2023/03/05 10:46:39;;;;;;;6.73;3.50;;;2.00;99.90;;;;;;7812147;28;20213;-85
2023/03/05 10:50:32;;;;;;;8.60;3.90;;;2.00;99.90;;;;;;7827508;28;20236;-86
2023/03/05 10:54:28;;;;;;;6.57;3.40;;;2.00;99.90;;;;;;7838005;28;20212;-85
2023/03/05 10:58:15;;;;;;;7.60;4.33;;;2.20;99.90;;;;;;7830990;28;20189;-85
2023/03/05 11:02:04;;;;;;;12.40;5.57;;;2.20;99.90;;;;;;7817766;28;20182;-86
2023/03/05 11:05:59;;;;;;;8.10;4.83;;;2.40;99.90;;;;;;7828344;28;20182;-84
2023/03/05 11:10:16;;;;;;;6.87;3.67;;;2.50;99.90;;;;;;7824232;28;20295;-83
2023/03/05 11:14:30;;;;;;;6.63;4.27;;;2.70;99.90;;;;;;7831074;28;20202;-89
2023/03/05 11:18:21;;;;;;;5.97;3.00;;;2.60;99.90;;;;;;7820454;28;20194;-84
2023/03/05 11:22:21;;;;;;;7.37;2.97;;;2.60;99.90;;;;;;7813609;28;20185;-86
2023/03/05 11:26:13;;;;;;;7.43;3.60;;;2.50;99.90;;;;;;7820485;28;20186;-85
2023/03/05 11:29:58;;;;;;;5.97;3.10;;;2.50;99.90;;;;;;7827748;28;20198;-86
2023/03/05 11:34:17;;;;;;;6.13;3.40;;;2.70;99.90;;;;;;7834735;28;20197;-85
2023/03/05 11:38:05;;;;;;;11.27;4.53;;;2.60;99.90;;;;;;7833798;28;20166;-86
2023/03/05 11:41:52;;;;;;;10.93;3.93;;;2.70;99.90;;;;;;7831678;28;20186;-86
2023/03/05 11:45:40;;;;;;;6.10;3.50;;;2.70;99.90;;;;;;7836874;28;20260;-85
2023/03/05 11:49:29;;;;;;;5.53;3.10;;;2.80;99.90;;;;;;7834969;28;20194;-85
2023/03/05 11:53:23;;;;;;;4.10;2.50;;;2.80;99.90;;;;;;7831479;28;20204;-85
2023/03/05 11:57:14;;;;;;;4.33;2.50;;;2.70;99.90;;;;;;7849479;28;20191;-86
2023/03/05 12:01:00;;;;;;;11.83;4.20;;;2.60;99.90;;;;;;7863749;28;20205;-85
2023/03/05 12:04:47;;;;;;;5.43;2.70;;;2.60;99.90;;;;;;7824707;28;20210;-85
2023/03/05 12:08:36;;;;;;;4.60;3.10;;;2.70;99.90;;;;;;7819744;28;20681;-85
2023/03/05 12:12:46;;;;;;;5.40;3.00;;;2.70;99.90;;;;;;7832319;28;20214;-85
2023/03/05 12:16:56;;;;;;;5.57;3.40;;;2.70;99.90;;;;;;7825181;28;20175;-86
2023/03/05 12:21:26;;;;;;;6.00;3.40;;;2.80;99.90;;;;;;7810096;28;20175;-83
2023/03/05 12:25:24;;;;;;;7.33;4.10;;;2.70;99.90;;;;;;7833539;28;20865;-85
2023/03/05 12:29:26;;;;;;;8.70;4.67;;;2.70;99.90;;;;;;7834773;28;20208;-84
2023/03/05 12:33:35;;;;;;;8.43;4.90;;;2.60;99.90;;;;;;7822282;28;20336;-85
2023/03/05 12:37:20;;;;;;;13.13;5.30;;;2.60;99.90;;;;;;7840347;28;20217;-85
2023/03/05 12:41:36;;;;;;;8.67;5.17;;;2.60;99.90;;;;;;7829573;28;20186;-85
2023/03/05 12:45:24;;;;;;;16.67;6.17;;;2.60;99.90;;;;;;7830715;28;20210;-85
2023/03/05 12:49:37;;;;;;;9.07;4.90;;;2.70;99.90;;;;;;7832000;28;20733;-85
2023/03/05 12:53:23;;;;;;;9.33;5.27;;;2.60;99.90;;;;;;7819536;28;20264;-85
2023/03/05 12:57:21;;;;;;;11.27;5.80;;;2.60;99.90;;;;;;7828706;28;20190;-86
2023/03/05 13:01:10;;;;;;;19.33;10.10;;;2.60;99.90;;;;;;7820494;28;20279;-86
2023/03/05 13:05:03;;;;;;;16.43;7.83;;;2.70;99.90;;;;;;7828758;28;20202;-85
2023/03/05 13:08:59;;;;;;;11.60;6.00;;;2.70;99.90;;;;;;7827869;28;20264;-84
2023/03/05 13:12:51;;;;;;;15.67;6.77;;;2.70;99.90;;;;;;7829646;28;20303;-85
2023/03/05 13:16:38;;;;;;;21.70;10.00;;;2.70;99.90;;;;;;7823053;28;20558;-85
2023/03/05 13:20:33;;;;;;;34.93;13.63;;;2.70;99.90;;;;;;7819851;28;20190;-85
2023/03/05 13:24:19;;;;;;;9.23;5.00;;;2.70;99.90;;;;;;7827575;28;20726;-85
2023/03/05 13:28:15;;;;;;;10.13;4.27;;;2.70;99.90;;;;;;7822530;28;20742;-85
2023/03/05 13:32:16;;;;;;;7.83;4.33;;;2.80;99.90;;;;;;7829000;28;20178;-85
2023/03/05 13:36:03;;;;;;;14.27;5.67;;;2.70;99.90;;;;;;7831404;28;20679;-85
2023/03/05 13:39:51;;;;;;;8.60;4.83;;;2.70;99.90;;;;;;7825106;28;20186;-85
2023/03/05 13:43:46;;;;;;;11.63;6.20;;;2.80;99.90;;;;;;7819082;28;20573;-85
2023/03/05 13:47:34;;;;;;;11.27;5.87;;;2.70;99.90;;;;;;7829837;28;20949;-85
2023/03/05 13:51:21;;;;;;;9.23;4.17;;;2.60;99.90;;;;;;7827971;28;20636;-85
2023/03/05 13:56:00;;;;;;;8.13;4.50;;;2.70;99.90;;;;;;7850933;28;20204;-86
2023/03/05 13:59:52;;;;;;;7.03;4.13;;;2.70;99.90;;;;;;7849867;28;20205;-86
2023/03/05 14:03:38;;;;;;;15.37;7.13;;;2.70;99.90;;;;;;7832286;28;20198;-86
2023/03/05 14:07:40;;;;;;;8.60;5.07;;;2.70;99.90;;;;;;7830667;28;20238;-85
2023/03/05 14:11:26;;;;;;;10.03;4.90;;;2.80;99.90;;;;;;7816679;28;20197;-85
2023/03/05 14:15:23;;;;;;;7.13;4.07;;;2.70;99.90;;;;;;7830674;28;20198;-86
2023/03/05 14:19:37;;;;;;;8.20;4.03;;;2.70;99.90;;;;;;7835468;28;20188;-86
2023/03/05 14:23:41;;;;;;;7.07;3.47;;;2.70;99.90;;;;;;7826193;28;20202;-86
2023/03/05 14:27:32;;;;;;;16.37;7.70;;;2.70;99.90;;;;;;7825062;28;20205;-86
2023/03/05 14:31:18;;;;;;;13.73;5.03;;;2.60;99.90;;;;;;7821656;28;20206;-87
2023/03/05 14:35:05;;;;;;;13.50;7.97;;;2.60;99.90;;;;;;7820147;28;20197;-86
2023/03/05 14:38:52;;;;;;;12.17;4.57;;;2.60;99.90;;;;;;7834971;28;20190;-87
2023/03/05 14:42:58;;;;;;;8.97;6.17;;;2.40;99.90;;;;;;7836305;28;20718;-87
2023/03/05 14:46:48;;;;;;;5.33;3.63;;;2.30;99.90;;;;;;7830485;28;20182;-87
2023/03/05 14:50:43;;;;;;;7.30;3.47;;;2.30;99.90;;;;;;7836990;28;20368;-86
2023/03/05 14:54:34;;;;;;;5.83;3.57;;;2.30;99.90;;;;;;7837402;28;20215;-87
2023/03/05 14:58:26;;;;;;;7.07;4.00;;;2.40;99.90;;;;;;7804751;28;20178;-87
2023/03/05 15:02:21;;;;;;;5.63;3.60;;;2.50;99.90;;;;;;7809714;28;20206;-86
2023/03/05 15:06:20;;;;;;;6.50;4.33;;;2.40;99.90;;;;;;7832532;28;20193;-86
2023/03/05 15:10:07;;;;;;;6.23;3.60;;;2.40;99.90;;;;;;7835702;28;20267;-86
2023/03/05 15:13:53;;;;;;;7.93;4.40;;;2.30;99.90;;;;;;7824248;28;20246;-86
2023/03/05 15:17:42;;;;;;;7.17;3.90;;;2.30;99.90;;;;;;7835044;28;20236;-86
2023/03/05 15:21:28;;;;;;;6.50;4.00;;;2.20;99.90;;;;;;7836665;28;20183;-87
2023/03/05 15:25:13;;;;;;;9.67;4.80;;;2.10;99.90;;;;;;7828030;28;20237;-87
2023/03/05 15:28:59;;;;;;;12.00;5.47;;;2.10;99.90;;;;;;7829611;28;20210;-87
2023/03/05 15:32:45;;;;;;;6.80;4.27;;;2.20;99.90;;;;;;7835304;28;20687;-86
2023/03/05 15:36:30;;;;;;;7.03;4.47;;;2.20;99.90;;;;;;7818791;28;20619;-87
2023/03/05 15:40:16;;;;;;;5.73;3.67;;;2.30;99.90;;;;;;7823039;28;20643;-87
2023/03/05 15:44:02;;;;;;;6.87;3.73;;;2.30;99.90;;;;;;7830802;28;20299;-86
2023/03/05 15:47:49;;;;;;;6.00;4.10;;;2.40;99.90;;;;;;7836982;28;20218;-86
2023/03/05 15:51:35;;;;;;;8.57;4.53;;;2.30;99.90;;;;;;7840077;28;20237;-86
2023/03/05 15:55:21;;;;;;;6.50;4.20;;;2.20;99.90;;;;;;7861328;28;20205;-86
2023/03/05 15:59:08;;;;;;;6.70;4.43;;;2.20;99.90;;;;;;7838053;28;20182;-86
2023/03/05 16:02:54;;;;;;;9.17;5.33;;;2.20;99.90;;;;;;7840579;28;20301;-86
2023/03/05 16:06:40;;;;;;;13.17;5.20;;;2.40;99.90;;;;;;7821308;28;20198;-89
2023/03/05 16:10:28;;;;;;;10.73;5.33;;;2.30;99.90;;;;;;7822246;28;20240;-81
2023/03/05 16:14:18;;;;;;;7.30;4.63;;;2.30;99.90;;;;;;7835505;28;20279;-86
2023/03/05 16:18:06;;;;;;;15.23;7.43;;;2.20;99.90;;;;;;7839888;28;20273;-87
2023/03/05 16:21:53;;;;;;;19.60;8.60;;;2.20;99.90;;;;;;7837827;28;20186;-87
2023/03/05 16:25:39;;;;;;;9.77;5.23;;;2.30;99.90;;;;;;7822981;28;20183;-86
2023/03/05 16:29:27;;;;;;;7.00;4.33;;;2.40;99.90;;;;;;7836751;28;20209;-86
2023/03/05 16:33:13;;;;;;;8.50;4.47;;;2.30;99.90;;;;;;7831957;28;20205;-88
2023/03/05 16:36:59;;;;;;;17.47;9.07;;;2.30;99.90;;;;;;7832139;28;20710;-86
2023/03/05 16:40:45;;;;;;;34.23;17.03;;;2.20;99.90;;;;;;7832779;28;20197;-87
2023/03/05 16:44:31;;;;;;;21.03;10.00;;;2.20;99.90;;;;;;7827624;28;20212;-86
2023/03/05 16:48:16;;;;;;;17.50;9.77;;;2.30;99.90;;;;;;7825911;28;20346;-86
2023/03/05 16:52:03;;;;;;;13.63;8.57;;;2.20;99.90;;;;;;7826502;28;20186;-87
2023/03/05 16:55:49;;;;;;;8.90;4.87;;;2.20;99.90;;;;;;7832271;28;20192;-86
2023/03/05 16:59:36;;;;;;;5.90;4.33;;;2.20;99.90;;;;;;7833375;28;20648;-86
2023/03/05 17:03:22;;;;;;;6.53;4.17;;;2.30;99.90;;;;;;7837651;28;20563;-86
2023/03/05 17:07:07;;;;;;;11.17;6.63;;;2.20;99.90;;;;;;7830083;28;20213;-86
2023/03/05 17:10:53;;;;;;;11.60;6.17;;;2.20;99.90;;;;;;7824154;28;20718;-87
2023/03/05 17:14:39;;;;;;;16.23;8.47;;;2.20;99.90;;;;;;7822538;28;20202;-86
2023/03/05 17:18:24;;;;;;;9.73;6.13;;;2.20;99.90;;;;;;7829096;28;20232;-87
2023/03/05 17:22:11;;;;;;;8.70;5.50;;;2.30;99.90;;;;;;7823648;28;20210;-87
2023/03/05 17:25:57;;;;;;;7.03;4.30;;;2.20;99.90;;;;;;7822138;28;20269;-87
2023/03/05 17:29:43;;;;;;;11.83;6.17;;;2.10;99.90;;;;;;7840818;28;20214;-87
2023/03/05 17:33:30;;;;;;;11.77;6.93;;;2.10;99.90;;;;;;7828815;28;20206;-87
2023/03/05 17:37:17;;;;;;;6.80;5.07;;;2.10;99.90;;;;;;7831549;28;20188;-86
2023/03/05 17:41:04;;;;;;;8.37;4.70;;;2.10;99.90;;;;;;7835767;28;20208;-87
2023/03/05 17:44:50;;;;;;;10.90;6.60;;;2.00;99.90;;;;;;7827140;28;20199;-87
2023/03/05 17:48:38;;;;;;;13.10;6.27;;;2.00;99.90;;;;;;7826637;28;20225;-87
2023/03/05 17:52:23;;;;;;;7.57;3.97;;;2.10;99.90;;;;;;7863819;28;20213;-85
2023/03/05 17:56:11;;;;;;;5.17;3.60;;;2.00;99.90;;;;;;7834235;28;20199;-88
2023/03/05 17:59:56;;;;;;;6.70;4.30;;;2.00;99.90;;;;;;7826168;28;20186;-86
2023/03/05 18:03:42;;;;;;;6.03;4.37;;;2.00;99.90;;;;;;7826203;28;20198;-87
2023/03/05 18:07:28;;;;;;;9.20;4.53;;;2.00;99.90;;;;;;7828071;28;20221;-87
2023/03/05 18:11:14;;;;;;;9.53;5.20;;;2.00;99.90;;;;;;7826472;28;20269;-85
2023/03/05 18:15:00;;;;;;;8.80;4.93;;;2.00;99.90;;;;;;7810421;28;20198;-87
2023/03/05 18:18:46;;;;;;;17.23;6.67;;;2.00;99.90;;;;;;7821994;28;20289;-86
2023/03/05 18:22:32;;;;;;;6.23;3.50;;;2.10;99.90;;;;;;7823705;28;20202;-87
2023/03/05 18:26:17;;;;;;;6.57;3.63;;;2.10;99.90;;;;;;7834576;28;20185;-87
2023/03/05 18:30:03;;;;;;;6.30;4.13;;;2.10;99.90;;;;;;7829005;28;20214;-87
2023/03/05 18:33:49;;;;;;;7.17;4.27;;;2.10;99.90;;;;;;7824012;28;20653;-87
2023/03/05 18:37:38;;;;;;;4.50;3.40;;;2.10;99.90;;;;;;7833744;28;20178;-87
2023/03/05 18:41:24;;;;;;;8.03;3.70;;;2.10;99.90;;;;;;7805413;28;20183;-87
2023/03/05 18:45:13;;;;;;;5.70;3.30;;;2.00;99.90;;;;;;7818982;28;20252;-86
2023/03/05 18:49:00;;;;;;;7.83;3.77;;;2.00;99.90;;;;;;7815093;28;20284;-87
2023/03/05 18:52:46;;;;;;;8.43;4.63;;;1.90;99.90;;;;;;7827691;28;20281;-86
2023/03/05 18:56:32;;;;;;;10.83;4.87;;;1.80;99.90;;;;;;7822269;28;20184;-87
2023/03/05 19:00:25;;;;;;;11.03;5.10;;;1.70;99.90;;;;;;7829945;28;20174;-87
2023/03/05 19:04:11;;;;;;;8.63;4.40;;;1.70;99.90;;;;;;7831826;28;20218;-86
2023/03/05 19:07:56;;;;;;;7.77;4.43;;;1.60;99.90;;;;;;7827214;28;20220;-88
2023/03/05 19:11:42;;;;;;;6.20;3.87;;;1.60;99.90;;;;;;7822542;28;20652;-87
2023/03/05 19:15:27;;;;;;;6.93;4.10;;;1.70;99.90;;;;;;7829553;28;20198;-87
2023/03/05 19:19:15;;;;;;;9.17;5.33;;;1.80;99.90;;;;;;7825685;28;20229;-87
2023/03/05 19:23:03;;;;;;;10.03;5.27;;;1.70;99.90;;;;;;7828251;28;20202;-86
2023/03/05 19:26:53;;;;;;;8.20;5.60;;;1.80;99.90;;;;;;7823542;28;20255;-86
2023/03/05 19:30:39;;;;;;;8.63;5.10;;;1.90;99.90;;;;;;7823048;28;20274;-87
2023/03/05 19:34:25;;;;;;;7.10;4.63;;;1.80;99.90;;;;;;7828580;28;20198;-87
2023/03/05 19:38:10;;;;;;;8.20;4.43;;;1.80;99.90;;;;;;7832030;28;20269;-88
2023/03/05 19:41:56;;;;;;;6.93;4.40;;;1.80;99.90;;;;;;7820819;28;20670;-89
2023/03/05 19:45:42;;;;;;;8.10;4.57;;;1.90;99.90;;;;;;7830608;28;20182;-89
2023/03/05 19:49:28;;;;;;;7.40;4.10;;;1.80;99.90;;;;;;7857980;28;20217;-88
2023/03/05 19:53:14;;;;;;;11.90;5.13;;;1.90;99.90;;;;;;7853554;28;20213;-89
2023/03/05 19:56:59;;;;;;;10.00;4.70;;;1.80;99.90;;;;;;7816891;28;20186;-89
2023/03/05 20:00:55;;;;;;;7.03;4.60;;;1.80;99.90;;;;;;7825762;28;20199;-88
2023/03/05 20:04:41;;;;;;;10.50;5.00;;;1.70;99.90;;;;;;7827981;28;20213;-89